sensor_id;sensor_type;location;lat;lon;timestamp;P1;durP1;ratioP1;P2;durP2;ratioP2
20649;SDS011;10484;48.736;9.332;2022-11-10T00:00:18;4.67;;;4.10;;
20649;SDS011;10484;48.736;9.332;2022-11-10T00:02:45;5.33;;;3.70;;
20649;SDS011;10484;48.736;9.332;2022-11-10T00:05:11;5.77;;;3.90;;
20649;SDS011;10484;48.736;9.332;2022-11-10T00:07:38;4.47;;;3.53;;
20649;SDS011;10484;48.736;9.332;2022-11-10T00:10:04;4.20;;;3.37;;
20649;SDS011;10484;48.736;9.332;2022-11-10T00:12:30;4.33;;;3.40;;
20649;SDS011;10484;48.736;9.332;2022-11-10T00:14:57;6.20;;;4.10;;
20649;SDS011;10484;48.736;9.332;2022-11-10T00:17:42;7.80;;;3.80;;
20649;SDS011;10484;48.736;9.332;2022-11-10T00:20:08;6.07;;;3.63;;
20649;SDS011;10484;48.736;9.332;2022-11-10T00:22:35;4.83;;;3.23;;
20649;SDS011;10484;48.736;9.332;2022-11-10T00:25:02;6.03;;;3.47;;
20649;SDS011;10484;48.736;9.332;2022-11-10T00:27:28;8.10;;;3.23;;
20649;SDS011;10484;48.736;9.332;2022-11-10T00:29:54;6.07;;;4.33;;
20649;SDS011;10484;48.736;9.332;2022-11-10T00:32:19;4.77;;;3.63;;
20649;SDS011;10484;48.736;9.332;2022-11-10T00:34:45;4.17;;;3.40;;
20649;SDS011;10484;48.736;9.332;2022-11-10T00:37:11;3.60;;;3.03;;
20649;SDS011;10484;48.736;9.332;2022-11-10T00:39:36;5.03;;;3.43;;
20649;SDS011;10484;48.736;9.332;2022-11-10T00:42:02;7.50;;;2.90;;
20649;SDS011;10484;48.736;9.332;2022-11-10T00:44:28;4.13;;;2.70;;
20649;SDS011;10484;48.736;9.332;2022-11-10T00:46:54;5.17;;;3.50;;
20649;SDS011;10484;48.736;9.332;2022-11-10T00:49:20;4.13;;;3.20;;
20649;SDS011;10484;48.736;9.332;2022-11-10T00:51:45;8.30;;;3.50;;
20649;SDS011;10484;48.736;9.332;2022-11-10T00:54:11;3.33;;;2.80;;
20649;SDS011;10484;48.736;9.332;2022-11-10T00:56:36;4.80;;;3.37;;
20649;SDS011;10484;48.736;9.332;2022-11-10T00:59:02;4.00;;;2.80;;
20649;SDS011;10484;48.736;9.332;2022-11-10T01:01:28;7.37;;;3.47;;
20649;SDS011;10484;48.736;9.332;2022-11-10T01:03:53;4.87;;;3.70;;
20649;SDS011;10484;48.736;9.332;2022-11-10T01:06:19;6.77;;;3.60;;
20649;SDS011;10484;48.736;9.332;2022-11-10T01:08:46;6.33;;;3.27;;
20649;SDS011;10484;48.736;9.332;2022-11-10T01:13:39;3.80;;;3.40;;
20649;SDS011;10484;48.736;9.332;2022-11-10T01:16:06;4.80;;;2.70;;
20649;SDS011;10484;48.736;9.332;2022-11-10T01:18:34;4.60;;;2.70;;
20649;SDS011;10484;48.736;9.332;2022-11-10T01:21:00;4.50;;;3.07;;
20649;SDS011;10484;48.736;9.332;2022-11-10T01:23:27;7.70;;;3.50;;
20649;SDS011;10484;48.736;9.332;2022-11-10T01:26:00;7.67;;;3.23;;
20649;SDS011;10484;48.736;9.332;2022-11-10T01:28:28;3.97;;;3.07;;
20649;SDS011;10484;48.736;9.332;2022-11-10T01:31:04;5.90;;;3.90;;
20649;SDS011;10484;48.736;9.332;2022-11-10T01:33:31;3.77;;;3.23;;
20649;SDS011;10484;48.736;9.332;2022-11-10T01:35:57;6.63;;;2.63;;
20649;SDS011;10484;48.736;9.332;2022-11-10T01:38:28;3.23;;;2.83;;
20649;SDS011;10484;48.736;9.332;2022-11-10T01:40:55;7.47;;;3.60;;
20649;SDS011;10484;48.736;9.332;2022-11-10T01:43:21;5.80;;;3.77;;
20649;SDS011;10484;48.736;9.332;2022-11-10T01:45:50;3.67;;;3.27;;
20649;SDS011;10484;48.736;9.332;2022-11-10T01:51:20;6.57;;;3.80;;
20649;SDS011;10484;48.736;9.332;2022-11-10T01:53:55;5.67;;;3.77;;
20649;SDS011;10484;48.736;9.332;2022-11-10T01:56:23;5.60;;;3.90;;
20649;SDS011;10484;48.736;9.332;2022-11-10T01:58:56;6.63;;;3.63;;
20649;SDS011;10484;48.736;9.332;2022-11-10T02:01:25;8.27;;;3.60;;
20649;SDS011;10484;48.736;9.332;2022-11-10T02:04:01;10.33;;;4.20;;
20649;SDS011;10484;48.736;9.332;2022-11-10T02:06:29;8.47;;;4.27;;
20649;SDS011;10484;48.736;9.332;2022-11-10T02:08:57;5.87;;;4.17;;
20649;SDS011;10484;48.736;9.332;2022-11-10T02:11:25;7.03;;;3.13;;
20649;SDS011;10484;48.736;9.332;2022-11-10T02:13:52;5.10;;;3.40;;
20649;SDS011;10484;48.736;9.332;2022-11-10T02:16:18;14.60;;;4.57;;
20649;SDS011;10484;48.736;9.332;2022-11-10T02:18:46;5.63;;;3.20;;
20649;SDS011;10484;48.736;9.332;2022-11-10T02:21:12;6.97;;;3.77;;
20649;SDS011;10484;48.736;9.332;2022-11-10T02:23:42;5.10;;;3.57;;
20649;SDS011;10484;48.736;9.332;2022-11-10T02:26:19;9.40;;;3.20;;
20649;SDS011;10484;48.736;9.332;2022-11-10T02:28:51;5.37;;;2.70;;
20649;SDS011;10484;48.736;9.332;2022-11-10T02:31:17;3.63;;;2.17;;
20649;SDS011;10484;48.736;9.332;2022-11-10T02:33:42;11.83;;;3.20;;
20649;SDS011;10484;48.736;9.332;2022-11-10T02:36:08;6.50;;;2.10;;
20649;SDS011;10484;48.736;9.332;2022-11-10T02:38:34;2.70;;;2.27;;
20649;SDS011;10484;48.736;9.332;2022-11-10T02:41:00;11.10;;;3.70;;
20649;SDS011;10484;48.736;9.332;2022-11-10T02:43:26;7.37;;;2.60;;
20649;SDS011;10484;48.736;9.332;2022-11-10T02:45:52;2.73;;;1.80;;
20649;SDS011;10484;48.736;9.332;2022-11-10T02:48:18;3.90;;;1.93;;
20649;SDS011;10484;48.736;9.332;2022-11-10T02:50:44;2.93;;;1.93;;
20649;SDS011;10484;48.736;9.332;2022-11-10T02:53:10;4.53;;;1.80;;
20649;SDS011;10484;48.736;9.332;2022-11-10T02:55:36;4.73;;;2.13;;
20649;SDS011;10484;48.736;9.332;2022-11-10T02:58:01;2.07;;;1.77;;
20649;SDS011;10484;48.736;9.332;2022-11-10T03:00:27;2.90;;;1.67;;
20649;SDS011;10484;48.736;9.332;2022-11-10T03:02:57;2.53;;;1.37;;
20649;SDS011;10484;48.736;9.332;2022-11-10T03:05:25;3.73;;;2.10;;
20649;SDS011;10484;48.736;9.332;2022-11-10T03:07:53;3.43;;;1.63;;
20649;SDS011;10484;48.736;9.332;2022-11-10T03:10:19;2.23;;;2.00;;
20649;SDS011;10484;48.736;9.332;2022-11-10T03:12:46;3.70;;;2.00;;
20649;SDS011;10484;48.736;9.332;2022-11-10T03:15:11;1.90;;;1.80;;
20649;SDS011;10484;48.736;9.332;2022-11-10T03:17:38;1.83;;;1.70;;
20649;SDS011;10484;48.736;9.332;2022-11-10T03:20:04;3.60;;;1.33;;
20649;SDS011;10484;48.736;9.332;2022-11-10T03:22:30;2.93;;;1.60;;
20649;SDS011;10484;48.736;9.332;2022-11-10T03:24:56;3.53;;;1.70;;
20649;SDS011;10484;48.736;9.332;2022-11-10T03:27:22;4.60;;;2.17;;
20649;SDS011;10484;48.736;9.332;2022-11-10T03:29:47;3.80;;;1.80;;
20649;SDS011;10484;48.736;9.332;2022-11-10T03:32:13;3.63;;;1.80;;
20649;SDS011;10484;48.736;9.332;2022-11-10T03:34:39;2.40;;;1.90;;
20649;SDS011;10484;48.736;9.332;2022-11-10T03:37:04;4.67;;;1.17;;
20649;SDS011;10484;48.736;9.332;2022-11-10T03:39:30;3.67;;;1.40;;
20649;SDS011;10484;48.736;9.332;2022-11-10T03:41:56;2.43;;;1.57;;
20649;SDS011;10484;48.736;9.332;2022-11-10T03:44:21;2.83;;;1.40;;
20649;SDS011;10484;48.736;9.332;2022-11-10T03:46:47;4.97;;;2.10;;
20649;SDS011;10484;48.736;9.332;2022-11-10T03:49:12;5.17;;;2.30;;
20649;SDS011;10484;48.736;9.332;2022-11-10T03:51:38;3.47;;;2.00;;
20649;SDS011;10484;48.736;9.332;2022-11-10T03:54:04;2.33;;;2.13;;
20649;SDS011;10484;48.736;9.332;2022-11-10T03:56:30;3.10;;;1.70;;
20649;SDS011;10484;48.736;9.332;2022-11-10T03:58:55;1.90;;;1.80;;
20649;SDS011;10484;48.736;9.332;2022-11-10T04:01:21;1.70;;;1.50;;
20649;SDS011;10484;48.736;9.332;2022-11-10T04:03:47;2.60;;;1.87;;
20649;SDS011;10484;48.736;9.332;2022-11-10T04:06:13;2.07;;;1.87;;
20649;SDS011;10484;48.736;9.332;2022-11-10T04:08:58;2.47;;;1.57;;
20649;SDS011;10484;48.736;9.332;2022-11-10T04:11:25;1.40;;;1.30;;
20649;SDS011;10484;48.736;9.332;2022-11-10T04:14:11;1.40;;;1.10;;
20649;SDS011;10484;48.736;9.332;2022-11-10T04:16:55;1.97;;;1.27;;
20649;SDS011;10484;48.736;9.332;2022-11-10T04:19:21;1.63;;;1.30;;
20649;SDS011;10484;48.736;9.332;2022-11-10T04:21:47;1.90;;;1.50;;
20649;SDS011;10484;48.736;9.332;2022-11-10T04:24:12;2.33;;;1.77;;
20649;SDS011;10484;48.736;9.332;2022-11-10T04:26:39;4.77;;;1.67;;
20649;SDS011;10484;48.736;9.332;2022-11-10T04:29:07;2.20;;;1.47;;
20649;SDS011;10484;48.736;9.332;2022-11-10T04:31:35;2.53;;;1.10;;
20649;SDS011;10484;48.736;9.332;2022-11-10T04:34:02;2.37;;;1.37;;
20649;SDS011;10484;48.736;9.332;2022-11-10T04:36:30;2.83;;;1.70;;
20649;SDS011;10484;48.736;9.332;2022-11-10T04:38:57;3.63;;;2.30;;
20649;SDS011;10484;48.736;9.332;2022-11-10T04:41:24;5.90;;;2.13;;
20649;SDS011;10484;48.736;9.332;2022-11-10T04:43:51;3.13;;;1.60;;
20649;SDS011;10484;48.736;9.332;2022-11-10T04:48:46;2.40;;;1.60;;
20649;SDS011;10484;48.736;9.332;2022-11-10T04:51:12;2.50;;;1.70;;
20649;SDS011;10484;48.736;9.332;2022-11-10T04:53:38;2.40;;;1.07;;
20649;SDS011;10484;48.736;9.332;2022-11-10T04:56:04;4.10;;;2.03;;
20649;SDS011;10484;48.736;9.332;2022-11-10T04:58:30;1.40;;;1.30;;
20649;SDS011;10484;48.736;9.332;2022-11-10T05:00:55;2.13;;;2.03;;
20649;SDS011;10484;48.736;9.332;2022-11-10T05:03:21;2.67;;;1.57;;
20649;SDS011;10484;48.736;9.332;2022-11-10T05:05:47;1.60;;;1.37;;
20649;SDS011;10484;48.736;9.332;2022-11-10T05:08:13;1.73;;;1.63;;
20649;SDS011;10484;48.736;9.332;2022-11-10T05:10:39;2.00;;;1.73;;
20649;SDS011;10484;48.736;9.332;2022-11-10T05:13:05;1.67;;;1.57;;
20649;SDS011;10484;48.736;9.332;2022-11-10T05:15:31;2.83;;;0.87;;
20649;SDS011;10484;48.736;9.332;2022-11-10T05:17:57;1.57;;;1.47;;
20649;SDS011;10484;48.736;9.332;2022-11-10T05:20:23;2.10;;;1.80;;
20649;SDS011;10484;48.736;9.332;2022-11-10T05:22:50;1.30;;;0.90;;
20649;SDS011;10484;48.736;9.332;2022-11-10T05:25:36;1.87;;;1.03;;
20649;SDS011;10484;48.736;9.332;2022-11-10T05:28:03;2.30;;;2.10;;
20649;SDS011;10484;48.736;9.332;2022-11-10T05:30:30;2.00;;;1.50;;
20649;SDS011;10484;48.736;9.332;2022-11-10T05:32:56;4.87;;;1.63;;
20649;SDS011;10484;48.736;9.332;2022-11-10T05:35:22;3.17;;;2.20;;
20649;SDS011;10484;48.736;9.332;2022-11-10T05:37:49;2.60;;;1.63;;
20649;SDS011;10484;48.736;9.332;2022-11-10T05:40:15;2.93;;;1.80;;
20649;SDS011;10484;48.736;9.332;2022-11-10T05:42:44;1.40;;;1.30;;
20649;SDS011;10484;48.736;9.332;2022-11-10T05:45:17;1.83;;;1.63;;
20649;SDS011;10484;48.736;9.332;2022-11-10T05:47:44;2.47;;;1.90;;
20649;SDS011;10484;48.736;9.332;2022-11-10T05:50:10;1.70;;;1.47;;
20649;SDS011;10484;48.736;9.332;2022-11-10T05:52:38;2.40;;;1.40;;
20649;SDS011;10484;48.736;9.332;2022-11-10T05:55:07;3.60;;;1.73;;
20649;SDS011;10484;48.736;9.332;2022-11-10T05:57:33;3.27;;;1.10;;
20649;SDS011;10484;48.736;9.332;2022-11-10T05:59:59;1.70;;;1.60;;
20649;SDS011;10484;48.736;9.332;2022-11-10T06:02:24;3.03;;;1.50;;
20649;SDS011;10484;48.736;9.332;2022-11-10T06:04:50;1.97;;;1.60;;
20649;SDS011;10484;48.736;9.332;2022-11-10T06:07:16;2.03;;;1.50;;
20649;SDS011;10484;48.736;9.332;2022-11-10T06:09:41;2.70;;;1.70;;
20649;SDS011;10484;48.736;9.332;2022-11-10T06:12:07;8.13;;;2.87;;
20649;SDS011;10484;48.736;9.332;2022-11-10T06:14:32;3.40;;;1.93;;
20649;SDS011;10484;48.736;9.332;2022-11-10T06:16:58;1.77;;;1.67;;
20649;SDS011;10484;48.736;9.332;2022-11-10T06:19:24;3.80;;;3.07;;
20649;SDS011;10484;48.736;9.332;2022-11-10T06:21:49;2.67;;;2.23;;
20649;SDS011;10484;48.736;9.332;2022-11-10T06:24:15;5.50;;;3.27;;
20649;SDS011;10484;48.736;9.332;2022-11-10T06:26:40;3.23;;;2.30;;
20649;SDS011;10484;48.736;9.332;2022-11-10T06:29:06;3.03;;;2.57;;
20649;SDS011;10484;48.736;9.332;2022-11-10T06:31:32;3.53;;;2.43;;
20649;SDS011;10484;48.736;9.332;2022-11-10T06:33:57;3.33;;;2.73;;
20649;SDS011;10484;48.736;9.332;2022-11-10T06:36:23;3.63;;;2.60;;
20649;SDS011;10484;48.736;9.332;2022-11-10T06:38:49;3.07;;;2.10;;
20649;SDS011;10484;48.736;9.332;2022-11-10T06:41:14;2.27;;;2.07;;
20649;SDS011;10484;48.736;9.332;2022-11-10T06:43:40;4.30;;;2.53;;
20649;SDS011;10484;48.736;9.332;2022-11-10T06:46:05;3.47;;;2.37;;
20649;SDS011;10484;48.736;9.332;2022-11-10T06:48:31;2.60;;;2.20;;
20649;SDS011;10484;48.736;9.332;2022-11-10T06:51:00;2.80;;;2.23;;
20649;SDS011;10484;48.736;9.332;2022-11-10T06:53:26;5.23;;;2.63;;
20649;SDS011;10484;48.736;9.332;2022-11-10T06:55:51;6.97;;;2.60;;
20649;SDS011;10484;48.736;9.332;2022-11-10T06:58:17;3.00;;;2.57;;
20649;SDS011;10484;48.736;9.332;2022-11-10T07:00:43;8.07;;;2.77;;
20649;SDS011;10484;48.736;9.332;2022-11-10T07:03:11;4.10;;;2.37;;
20649;SDS011;10484;48.736;9.332;2022-11-10T07:05:37;2.67;;;2.47;;
20649;SDS011;10484;48.736;9.332;2022-11-10T07:08:07;3.00;;;2.07;;
20649;SDS011;10484;48.736;9.332;2022-11-10T07:10:37;3.30;;;2.50;;
20649;SDS011;10484;48.736;9.332;2022-11-10T07:13:03;3.90;;;2.27;;
20649;SDS011;10484;48.736;9.332;2022-11-10T07:15:29;3.33;;;2.97;;
20649;SDS011;10484;48.736;9.332;2022-11-10T07:17:57;3.13;;;2.67;;
20649;SDS011;10484;48.736;9.332;2022-11-10T07:20:22;6.73;;;3.83;;
20649;SDS011;10484;48.736;9.332;2022-11-10T07:22:50;5.70;;;3.77;;
20649;SDS011;10484;48.736;9.332;2022-11-10T07:25:21;13.13;;;3.80;;
20649;SDS011;10484;48.736;9.332;2022-11-10T07:27:51;7.07;;;2.87;;
20649;SDS011;10484;48.736;9.332;2022-11-10T07:30:24;6.47;;;3.50;;
20649;SDS011;10484;48.736;9.332;2022-11-10T07:33:08;8.30;;;4.70;;
20649;SDS011;10484;48.736;9.332;2022-11-10T07:35:38;9.30;;;5.30;;
20649;SDS011;10484;48.736;9.332;2022-11-10T07:38:05;9.50;;;4.80;;
20649;SDS011;10484;48.736;9.332;2022-11-10T07:40:35;11.40;;;4.43;;
20649;SDS011;10484;48.736;9.332;2022-11-10T07:43:01;9.53;;;4.33;;
20649;SDS011;10484;48.736;9.332;2022-11-10T07:45:28;11.67;;;4.40;;
20649;SDS011;10484;48.736;9.332;2022-11-10T07:47:57;10.20;;;4.90;;
20649;SDS011;10484;48.736;9.332;2022-11-10T07:50:24;8.50;;;4.03;;
20649;SDS011;10484;48.736;9.332;2022-11-10T07:52:49;11.93;;;5.07;;
20649;SDS011;10484;48.736;9.332;2022-11-10T07:55:15;9.97;;;5.60;;
20649;SDS011;10484;48.736;9.332;2022-11-10T07:57:41;14.10;;;5.43;;
20649;SDS011;10484;48.736;9.332;2022-11-10T08:00:06;8.80;;;4.50;;
20649;SDS011;10484;48.736;9.332;2022-11-10T08:02:32;9.17;;;4.63;;
20649;SDS011;10484;48.736;9.332;2022-11-10T08:04:58;9.40;;;5.17;;
20649;SDS011;10484;48.736;9.332;2022-11-10T08:07:24;9.53;;;5.70;;
20649;SDS011;10484;48.736;9.332;2022-11-10T08:09:49;12.60;;;6.70;;
20649;SDS011;10484;48.736;9.332;2022-11-10T08:12:15;14.10;;;7.00;;
20649;SDS011;10484;48.736;9.332;2022-11-10T08:14:40;9.57;;;5.67;;
20649;SDS011;10484;48.736;9.332;2022-11-10T08:17:06;11.43;;;7.10;;
20649;SDS011;10484;48.736;9.332;2022-11-10T08:19:32;9.63;;;6.63;;
20649;SDS011;10484;48.736;9.332;2022-11-10T08:21:57;9.20;;;6.33;;
20649;SDS011;10484;48.736;9.332;2022-11-10T08:24:23;13.00;;;6.77;;
20649;SDS011;10484;48.736;9.332;2022-11-10T08:26:48;11.77;;;7.40;;
20649;SDS011;10484;48.736;9.332;2022-11-10T08:29:14;12.77;;;6.10;;
20649;SDS011;10484;48.736;9.332;2022-11-10T08:31:39;12.43;;;6.50;;
20649;SDS011;10484;48.736;9.332;2022-11-10T08:34:05;14.00;;;6.90;;
20649;SDS011;10484;48.736;9.332;2022-11-10T08:36:31;14.67;;;7.00;;
20649;SDS011;10484;48.736;9.332;2022-11-10T08:38:56;10.57;;;6.00;;
20649;SDS011;10484;48.736;9.332;2022-11-10T08:41:22;11.70;;;6.37;;
20649;SDS011;10484;48.736;9.332;2022-11-10T08:43:47;12.77;;;6.00;;
20649;SDS011;10484;48.736;9.332;2022-11-10T08:46:13;8.90;;;6.10;;
20649;SDS011;10484;48.736;9.332;2022-11-10T08:48:39;11.97;;;5.50;;
20649;SDS011;10484;48.736;9.332;2022-11-10T08:51:04;10.13;;;5.27;;
20649;SDS011;10484;48.736;9.332;2022-11-10T08:53:30;10.07;;;5.93;;
20649;SDS011;10484;48.736;9.332;2022-11-10T08:55:58;10.80;;;6.10;;
20649;SDS011;10484;48.736;9.332;2022-11-10T08:58:24;11.50;;;5.30;;
20649;SDS011;10484;48.736;9.332;2022-11-10T09:00:50;12.57;;;6.80;;
20649;SDS011;10484;48.736;9.332;2022-11-10T09:03:19;18.30;;;6.60;;
20649;SDS011;10484;48.736;9.332;2022-11-10T09:05:47;16.40;;;7.57;;
20649;SDS011;10484;48.736;9.332;2022-11-10T09:08:14;19.07;;;6.57;;
20649;SDS011;10484;48.736;9.332;2022-11-10T09:10:41;14.07;;;8.07;;
20649;SDS011;10484;48.736;9.332;2022-11-10T09:13:09;19.07;;;6.47;;
20649;SDS011;10484;48.736;9.332;2022-11-10T09:15:35;16.97;;;7.10;;
20649;SDS011;10484;48.736;9.332;2022-11-10T09:18:02;10.53;;;6.97;;
20649;SDS011;10484;48.736;9.332;2022-11-10T09:20:30;19.50;;;7.57;;
20649;SDS011;10484;48.736;9.332;2022-11-10T09:23:08;15.03;;;8.90;;
20649;SDS011;10484;48.736;9.332;2022-11-10T09:25:36;17.97;;;7.57;;
20649;SDS011;10484;48.736;9.332;2022-11-10T09:28:02;12.03;;;6.97;;
20649;SDS011;10484;48.736;9.332;2022-11-10T09:30:28;17.47;;;7.40;;
20649;SDS011;10484;48.736;9.332;2022-11-10T09:32:54;13.87;;;7.20;;
20649;SDS011;10484;48.736;9.332;2022-11-10T09:35:21;10.23;;;6.43;;
20649;SDS011;10484;48.736;9.332;2022-11-10T09:37:47;12.93;;;6.40;;
20649;SDS011;10484;48.736;9.332;2022-11-10T09:40:20;10.37;;;6.57;;
20649;SDS011;10484;48.736;9.332;2022-11-10T09:42:54;12.50;;;6.63;;
20649;SDS011;10484;48.736;9.332;2022-11-10T09:45:28;8.97;;;5.47;;
20649;SDS011;10484;48.736;9.332;2022-11-10T09:47:58;7.70;;;5.30;;
20649;SDS011;10484;48.736;9.332;2022-11-10T09:53:16;6.97;;;5.80;;
20649;SDS011;10484;48.736;9.332;2022-11-10T09:55:49;7.00;;;5.00;;
20649;SDS011;10484;48.736;9.332;2022-11-10T09:58:15;7.43;;;4.70;;
20649;SDS011;10484;48.736;9.332;2022-11-10T10:00:45;7.87;;;4.97;;
20649;SDS011;10484;48.736;9.332;2022-11-10T10:03:18;13.90;;;5.10;;
20649;SDS011;10484;48.736;9.332;2022-11-10T10:13:52;6.33;;;5.20;;
20649;SDS011;10484;48.736;9.332;2022-11-10T10:16:50;7.73;;;4.93;;
20649;SDS011;10484;48.736;9.332;2022-11-10T10:19:32;6.63;;;4.20;;
20649;SDS011;10484;48.736;9.332;2022-11-10T10:22:23;5.60;;;4.23;;
20649;SDS011;10484;48.736;9.332;2022-11-10T10:25:26;4.87;;;3.73;;
20649;SDS011;10484;48.736;9.332;2022-11-10T10:30:42;5.87;;;3.67;;
20649;SDS011;10484;48.736;9.332;2022-11-10T10:33:14;5.07;;;3.67;;
20649;SDS011;10484;48.736;9.332;2022-11-10T10:35:41;5.67;;;3.40;;
20649;SDS011;10484;48.736;9.332;2022-11-10T10:38:15;7.97;;;3.97;;
20649;SDS011;10484;48.736;9.332;2022-11-10T10:40:45;4.73;;;3.80;;
20649;SDS011;10484;48.736;9.332;2022-11-10T10:43:14;7.23;;;2.77;;
20649;SDS011;10484;48.736;9.332;2022-11-10T10:45:39;5.87;;;3.43;;
20649;SDS011;10484;48.736;9.332;2022-11-10T10:48:22;4.73;;;3.40;;
20649;SDS011;10484;48.736;9.332;2022-11-10T10:50:50;5.07;;;2.93;;
20649;SDS011;10484;48.736;9.332;2022-11-10T10:53:19;5.03;;;2.93;;
20649;SDS011;10484;48.736;9.332;2022-11-10T10:58:31;6.00;;;3.00;;
20649;SDS011;10484;48.736;9.332;2022-11-10T11:01:17;4.77;;;2.43;;
20649;SDS011;10484;48.736;9.332;2022-11-10T11:03:54;4.70;;;2.33;;
20649;SDS011;10484;48.736;9.332;2022-11-10T11:06:21;2.10;;;1.50;;
20649;SDS011;10484;48.736;9.332;2022-11-10T11:09:07;3.23;;;1.93;;
20649;SDS011;10484;48.736;9.332;2022-11-10T11:11:40;5.83;;;1.50;;
20649;SDS011;10484;48.736;9.332;2022-11-10T11:14:21;5.17;;;3.50;;
20649;SDS011;10484;48.736;9.332;2022-11-10T11:19:31;2.20;;;1.40;;
20649;SDS011;10484;48.736;9.332;2022-11-10T11:22:04;1.90;;;1.50;;
20649;SDS011;10484;48.736;9.332;2022-11-10T11:30:15;1.87;;;1.40;;
20649;SDS011;10484;48.736;9.332;2022-11-10T11:35:40;1.33;;;1.23;;
20649;SDS011;10484;48.736;9.332;2022-11-10T11:41:18;4.37;;;1.40;;
20649;SDS011;10484;48.736;9.332;2022-11-10T11:44:09;1.60;;;0.97;;
20649;SDS011;10484;48.736;9.332;2022-11-10T11:46:50;2.00;;;0.93;;
20649;SDS011;10484;48.736;9.332;2022-11-10T11:55:10;1.13;;;0.77;;
20649;SDS011;10484;48.736;9.332;2022-11-10T12:00:25;1.90;;;0.83;;
20649;SDS011;10484;48.736;9.332;2022-11-10T12:09:19;4.77;;;1.43;;
20649;SDS011;10484;48.736;9.332;2022-11-10T12:14:54;2.23;;;1.10;;
20649;SDS011;10484;48.736;9.332;2022-11-10T12:17:28;3.50;;;0.77;;
20649;SDS011;10484;48.736;9.332;2022-11-10T12:29:03;3.03;;;0.60;;
20649;SDS011;10484;48.736;9.332;2022-11-10T12:31:46;0.93;;;0.70;;
20649;SDS011;10484;48.736;9.332;2022-11-10T12:34:18;3.27;;;0.70;;
20649;SDS011;10484;48.736;9.332;2022-11-10T12:37:04;2.10;;;0.70;;
20649;SDS011;10484;48.736;9.332;2022-11-10T12:39:40;2.40;;;0.67;;
20649;SDS011;10484;48.736;9.332;2022-11-10T12:42:21;3.33;;;0.63;;
20649;SDS011;10484;48.736;9.332;2022-11-10T12:45:04;1.70;;;0.53;;
20649;SDS011;10484;48.736;9.332;2022-11-10T12:47:44;0.77;;;0.77;;
20649;SDS011;10484;48.736;9.332;2022-11-10T12:53:22;0.60;;;0.40;;
20649;SDS011;10484;48.736;9.332;2022-11-10T12:58:35;2.43;;;0.93;;
20649;SDS011;10484;48.736;9.332;2022-11-10T13:01:02;0.93;;;0.43;;
20649;SDS011;10484;48.736;9.332;2022-11-10T13:03:30;1.60;;;0.50;;
20649;SDS011;10484;48.736;9.332;2022-11-10T13:05:59;4.10;;;0.50;;
20649;SDS011;10484;48.736;9.332;2022-11-10T13:08:31;0.70;;;0.60;;
20649;SDS011;10484;48.736;9.332;2022-11-10T13:11:00;2.70;;;0.47;;
20649;SDS011;10484;48.736;9.332;2022-11-10T13:13:27;0.67;;;0.40;;
20649;SDS011;10484;48.736;9.332;2022-11-10T13:15:56;2.57;;;0.63;;
20649;SDS011;10484;48.736;9.332;2022-11-10T13:18:23;1.80;;;0.50;;
20649;SDS011;10484;48.736;9.332;2022-11-10T13:20:57;1.20;;;0.63;;
20649;SDS011;10484;48.736;9.332;2022-11-10T13:36:38;1.27;;;0.40;;
20649;SDS011;10484;48.736;9.332;2022-11-10T13:42:15;2.97;;;1.47;;
20649;SDS011;10484;48.736;9.332;2022-11-10T13:44:39;3.60;;;2.20;;
20649;SDS011;10484;48.736;9.332;2022-11-10T14:00:22;3.03;;;0.50;;
20649;SDS011;10484;48.736;9.332;2022-11-10T14:02:52;1.10;;;0.50;;
20649;SDS011;10484;48.736;9.332;2022-11-10T14:08:09;1.17;;;0.40;;
20649;SDS011;10484;48.736;9.332;2022-11-10T14:10:46;3.40;;;1.43;;
20649;SDS011;10484;48.736;9.332;2022-11-10T14:13:21;3.10;;;0.67;;
20649;SDS011;10484;48.736;9.332;2022-11-10T14:16:15;2.00;;;0.50;;
20649;SDS011;10484;48.736;9.332;2022-11-10T14:21:51;1.20;;;0.40;;
20649;SDS011;10484;48.736;9.332;2022-11-10T14:24:26;2.00;;;0.40;;
20649;SDS011;10484;48.736;9.332;2022-11-10T14:26:58;0.83;;;0.40;;
20649;SDS011;10484;48.736;9.332;2022-11-10T14:29:34;1.00;;;0.40;;
20649;SDS011;10484;48.736;9.332;2022-11-10T14:32:18;2.87;;;0.40;;
20649;SDS011;10484;48.736;9.332;2022-11-10T14:34:49;0.60;;;0.40;;
20649;SDS011;10484;48.736;9.332;2022-11-10T14:37:19;0.60;;;0.40;;
20649;SDS011;10484;48.736;9.332;2022-11-10T14:39:50;1.07;;;0.70;;
20649;SDS011;10484;48.736;9.332;2022-11-10T14:42:20;1.53;;;0.40;;
20649;SDS011;10484;48.736;9.332;2022-11-10T14:44:48;0.50;;;0.50;;
20649;SDS011;10484;48.736;9.332;2022-11-10T14:47:27;2.73;;;0.80;;
20649;SDS011;10484;48.736;9.332;2022-11-10T14:52:38;1.40;;;0.60;;
20649;SDS011;10484;48.736;9.332;2022-11-10T14:55:06;1.83;;;0.50;;
20649;SDS011;10484;48.736;9.332;2022-11-10T14:58:03;0.60;;;0.50;;
20649;SDS011;10484;48.736;9.332;2022-11-10T15:00:35;1.90;;;0.57;;
20649;SDS011;10484;48.736;9.332;2022-11-10T15:03:03;1.33;;;0.60;;
20649;SDS011;10484;48.736;9.332;2022-11-10T15:05:31;1.50;;;0.60;;
20649;SDS011;10484;48.736;9.332;2022-11-10T15:07:57;0.80;;;0.40;;
20649;SDS011;10484;48.736;9.332;2022-11-10T15:13:04;1.13;;;0.30;;
20649;SDS011;10484;48.736;9.332;2022-11-10T15:15:30;0.93;;;0.70;;
20649;SDS011;10484;48.736;9.332;2022-11-10T15:17:56;1.70;;;0.40;;
20649;SDS011;10484;48.736;9.332;2022-11-10T15:20:40;1.10;;;0.47;;
20649;SDS011;10484;48.736;9.332;2022-11-10T15:23:14;0.60;;;0.37;;
20649;SDS011;10484;48.736;9.332;2022-11-10T15:25:45;0.50;;;0.40;;
20649;SDS011;10484;48.736;9.332;2022-11-10T15:30:37;1.57;;;0.37;;
20649;SDS011;10484;48.736;9.332;2022-11-10T15:33:12;0.77;;;0.60;;
20649;SDS011;10484;48.736;9.332;2022-11-10T15:35:40;2.53;;;1.23;;
20649;SDS011;10484;48.736;9.332;2022-11-10T15:45:33;1.50;;;0.70;;
20649;SDS011;10484;48.736;9.332;2022-11-10T15:47:58;2.10;;;1.23;;
20649;SDS011;10484;48.736;9.332;2022-11-10T15:50:24;3.40;;;1.10;;
20649;SDS011;10484;48.736;9.332;2022-11-10T15:52:50;2.50;;;1.27;;
20649;SDS011;10484;48.736;9.332;2022-11-10T15:55:22;1.50;;;1.07;;
20649;SDS011;10484;48.736;9.332;2022-11-10T15:57:49;2.53;;;1.20;;
20649;SDS011;10484;48.736;9.332;2022-11-10T16:00:14;3.90;;;1.23;;
20649;SDS011;10484;48.736;9.332;2022-11-10T16:02:40;1.93;;;1.13;;
20649;SDS011;10484;48.736;9.332;2022-11-10T16:05:09;2.20;;;0.87;;
20649;SDS011;10484;48.736;9.332;2022-11-10T16:07:36;3.23;;;0.90;;
20649;SDS011;10484;48.736;9.332;2022-11-10T16:10:02;1.50;;;1.07;;
20649;SDS011;10484;48.736;9.332;2022-11-10T16:12:29;1.77;;;1.47;;
20649;SDS011;10484;48.736;9.332;2022-11-10T16:14:55;2.70;;;1.20;;
20649;SDS011;10484;48.736;9.332;2022-11-10T16:17:21;3.20;;;1.10;;
20649;SDS011;10484;48.736;9.332;2022-11-10T16:19:47;2.67;;;1.00;;
20649;SDS011;10484;48.736;9.332;2022-11-10T16:22:13;2.90;;;1.13;;
20649;SDS011;10484;48.736;9.332;2022-11-10T16:24:39;4.77;;;0.93;;
20649;SDS011;10484;48.736;9.332;2022-11-10T16:27:05;1.47;;;1.00;;
20649;SDS011;10484;48.736;9.332;2022-11-10T16:29:35;1.23;;;1.13;;
20649;SDS011;10484;48.736;9.332;2022-11-10T16:32:01;2.50;;;1.73;;
20649;SDS011;10484;48.736;9.332;2022-11-10T16:34:27;3.00;;;1.50;;
20649;SDS011;10484;48.736;9.332;2022-11-10T16:36:53;2.90;;;2.03;;
20649;SDS011;10484;48.736;9.332;2022-11-10T16:39:19;5.30;;;1.83;;
20649;SDS011;10484;48.736;9.332;2022-11-10T16:41:44;2.30;;;1.47;;
20649;SDS011;10484;48.736;9.332;2022-11-10T16:44:13;1.97;;;1.60;;
20649;SDS011;10484;48.736;9.332;2022-11-10T16:46:40;2.20;;;1.57;;
20649;SDS011;10484;48.736;9.332;2022-11-10T16:49:43;2.30;;;1.63;;
20649;SDS011;10484;48.736;9.332;2022-11-10T16:52:15;2.20;;;1.43;;
20649;SDS011;10484;48.736;9.332;2022-11-10T16:54:42;2.97;;;1.60;;
20649;SDS011;10484;48.736;9.332;2022-11-10T16:57:11;1.50;;;1.40;;